Terminal Aerodrome Forecast
Issued by NWS

Home | Current Version | Previous Version | Text Only | Print | Product List | Glossary On
Versions: 1 2 3 4 5 6 7 8 9 10 11 12 13 14 15 16
000
FTAK31 PANC 231725
TAFADU
TAF
PADU 231725Z 2318/2418 22012G20KT P6SM -RA SCT020 BKN035
      TEMPO 2318/2321 25017G28KT BKN020
     FM232100 23010G18KT P6SM BKN035=

USA.gov is the U.S. government's official web portal to all federal, state and local government web resources and services.